sensor_id;sensor_type;location;lat;lon;timestamp;P1;durP1;ratioP1;P2;durP2;ratioP2
20093;SDS011;10206;48.012;10.030;2023-06-24T00:00:09;8.07;;;5.78;;
20093;SDS011;10206;48.012;10.030;2023-06-24T00:02:37;6.45;;;5.68;;
20093;SDS011;10206;48.012;10.030;2023-06-24T00:05:04;6.82;;;6.13;;
20093;SDS011;10206;48.012;10.030;2023-06-24T00:07:31;7.20;;;6.07;;
20093;SDS011;10206;48.012;10.030;2023-06-24T00:10:01;7.37;;;6.30;;
20093;SDS011;10206;48.012;10.030;2023-06-24T00:12:28;7.43;;;6.27;;
20093;SDS011;10206;48.012;10.030;2023-06-24T00:14:54;7.87;;;6.70;;
20093;SDS011;10206;48.012;10.030;2023-06-24T00:17:20;7.73;;;5.87;;
20093;SDS011;10206;48.012;10.030;2023-06-24T00:19:46;8.43;;;6.13;;
20093;SDS011;10206;48.012;10.030;2023-06-24T00:22:12;7.43;;;5.97;;
20093;SDS011;10206;48.012;10.030;2023-06-24T00:24:39;7.70;;;6.37;;
20093;SDS011;10206;48.012;10.030;2023-06-24T00:27:06;7.00;;;5.93;;
20093;SDS011;10206;48.012;10.030;2023-06-24T00:29:32;7.37;;;6.57;;
20093;SDS011;10206;48.012;10.030;2023-06-24T00:31:58;8.40;;;6.20;;
20093;SDS011;10206;48.012;10.030;2023-06-24T00:34:25;8.20;;;6.33;;
20093;SDS011;10206;48.012;10.030;2023-06-24T00:36:52;8.10;;;6.43;;
20093;SDS011;10206;48.012;10.030;2023-06-24T00:39:18;7.50;;;6.70;;
20093;SDS011;10206;48.012;10.030;2023-06-24T00:41:44;8.68;;;6.55;;
20093;SDS011;10206;48.012;10.030;2023-06-24T00:44:10;8.03;;;6.23;;
20093;SDS011;10206;48.012;10.030;2023-06-24T00:46:36;7.27;;;6.57;;
20093;SDS011;10206;48.012;10.030;2023-06-24T00:49:05;7.05;;;6.30;;
20093;SDS011;10206;48.012;10.030;2023-06-24T00:51:31;8.90;;;6.37;;
20093;SDS011;10206;48.012;10.030;2023-06-24T00:53:59;8.45;;;6.78;;
20093;SDS011;10206;48.012;10.030;2023-06-24T00:56:28;7.00;;;6.30;;
20093;SDS011;10206;48.012;10.030;2023-06-24T00:58:59;8.27;;;6.55;;
20093;SDS011;10206;48.012;10.030;2023-06-24T01:01:32;7.77;;;6.63;;
20093;SDS011;10206;48.012;10.030;2023-06-24T01:04:00;8.50;;;6.72;;
20093;SDS011;10206;48.012;10.030;2023-06-24T01:06:28;7.75;;;6.95;;
20093;SDS011;10206;48.012;10.030;2023-06-24T01:08:55;9.68;;;6.82;;
20093;SDS011;10206;48.012;10.030;2023-06-24T01:11:22;7.78;;;6.50;;
20093;SDS011;10206;48.012;10.030;2023-06-24T01:13:49;7.47;;;6.25;;
20093;SDS011;10206;48.012;10.030;2023-06-24T01:16:20;8.48;;;6.63;;
20093;SDS011;10206;48.012;10.030;2023-06-24T01:19:45;8.13;;;6.80;;
20093;SDS011;10206;48.012;10.030;2023-06-24T01:22:08;7.55;;;6.75;;
20093;SDS011;10206;48.012;10.030;2023-06-24T01:30:54;7.70;;;6.55;;
20093;SDS011;10206;48.012;10.030;2023-06-24T01:33:46;9.70;;;6.80;;
20093;SDS011;10206;48.012;10.030;2023-06-24T01:36:19;8.43;;;6.95;;
20093;SDS011;10206;48.012;10.030;2023-06-24T01:38:55;9.48;;;6.70;;
20093;SDS011;10206;48.012;10.030;2023-06-24T01:41:31;7.82;;;7.05;;
20093;SDS011;10206;48.012;10.030;2023-06-24T01:44:05;7.20;;;6.50;;
20093;SDS011;10206;48.012;10.030;2023-06-24T01:46:35;8.85;;;7.18;;
20093;SDS011;10206;48.012;10.030;2023-06-24T01:49:02;7.77;;;6.97;;
20093;SDS011;10206;48.012;10.030;2023-06-24T01:51:32;7.00;;;6.30;;
20093;SDS011;10206;48.012;10.030;2023-06-24T01:54:02;9.32;;;7.15;;
20093;SDS011;10206;48.012;10.030;2023-06-24T01:56:31;8.48;;;7.05;;
20093;SDS011;10206;48.012;10.030;2023-06-24T01:59:00;8.13;;;6.63;;
20093;SDS011;10206;48.012;10.030;2023-06-24T02:01:29;8.55;;;7.60;;
20093;SDS011;10206;48.012;10.030;2023-06-24T02:03:57;7.63;;;6.40;;
20093;SDS011;10206;48.012;10.030;2023-06-24T02:06:26;7.90;;;6.78;;
20093;SDS011;10206;48.012;10.030;2023-06-24T02:08:55;9.85;;;7.22;;
20093;SDS011;10206;48.012;10.030;2023-06-24T02:11:24;7.65;;;6.85;;
20093;SDS011;10206;48.012;10.030;2023-06-24T02:13:51;10.48;;;7.13;;
20093;SDS011;10206;48.012;10.030;2023-06-24T02:16:20;8.98;;;7.30;;
20093;SDS011;10206;48.012;10.030;2023-06-24T02:18:47;8.80;;;7.28;;
20093;SDS011;10206;48.012;10.030;2023-06-24T02:21:14;8.65;;;6.78;;
20093;SDS011;10206;48.012;10.030;2023-06-24T02:23:43;8.52;;;7.15;;
20093;SDS011;10206;48.012;10.030;2023-06-24T02:26:09;13.43;;;7.78;;
20093;SDS011;10206;48.012;10.030;2023-06-24T02:28:36;9.43;;;6.65;;
20093;SDS011;10206;48.012;10.030;2023-06-24T02:31:04;9.57;;;7.70;;
20093;SDS011;10206;48.012;10.030;2023-06-24T02:33:34;9.20;;;7.22;;
20093;SDS011;10206;48.012;10.030;2023-06-24T02:36:00;8.65;;;7.18;;
20093;SDS011;10206;48.012;10.030;2023-06-24T02:38:26;8.57;;;7.05;;
20093;SDS011;10206;48.012;10.030;2023-06-24T02:40:52;7.72;;;6.90;;
20093;SDS011;10206;48.012;10.030;2023-06-24T02:43:18;9.63;;;7.57;;
20093;SDS011;10206;48.012;10.030;2023-06-24T02:45:45;8.52;;;7.40;;
20093;SDS011;10206;48.012;10.030;2023-06-24T02:48:12;10.20;;;7.53;;
20093;SDS011;10206;48.012;10.030;2023-06-24T02:50:40;7.97;;;6.70;;
20093;SDS011;10206;48.012;10.030;2023-06-24T02:53:10;9.80;;;7.88;;
20093;SDS011;10206;48.012;10.030;2023-06-24T02:55:37;11.77;;;7.53;;
20093;SDS011;10206;48.012;10.030;2023-06-24T02:58:05;11.30;;;8.00;;
20093;SDS011;10206;48.012;10.030;2023-06-24T03:00:33;10.48;;;7.68;;
20093;SDS011;10206;48.012;10.030;2023-06-24T03:03:00;9.43;;;8.38;;
20093;SDS011;10206;48.012;10.030;2023-06-24T03:05:28;10.48;;;8.23;;
20093;SDS011;10206;48.012;10.030;2023-06-24T03:07:56;9.50;;;8.30;;
20093;SDS011;10206;48.012;10.030;2023-06-24T03:10:23;10.18;;;8.88;;
20093;SDS011;10206;48.012;10.030;2023-06-24T03:12:50;12.02;;;8.55;;
20093;SDS011;10206;48.012;10.030;2023-06-24T03:15:17;10.40;;;8.97;;
20093;SDS011;10206;48.012;10.030;2023-06-24T03:17:43;11.25;;;9.52;;
20093;SDS011;10206;48.012;10.030;2023-06-24T03:20:09;12.40;;;9.70;;
20093;SDS011;10206;48.012;10.030;2023-06-24T03:22:36;11.30;;;9.77;;
20093;SDS011;10206;48.012;10.030;2023-06-24T03:25:02;12.13;;;9.93;;
20093;SDS011;10206;48.012;10.030;2023-06-24T03:27:28;11.23;;;9.50;;
20093;SDS011;10206;48.012;10.030;2023-06-24T03:29:56;11.65;;;9.57;;
20093;SDS011;10206;48.012;10.030;2023-06-24T03:32:22;10.32;;;9.18;;
20093;SDS011;10206;48.012;10.030;2023-06-24T03:34:48;12.05;;;9.05;;
20093;SDS011;10206;48.012;10.030;2023-06-24T03:37:14;12.53;;;9.07;;
20093;SDS011;10206;48.012;10.030;2023-06-24T03:39:41;10.40;;;8.50;;
20093;SDS011;10206;48.012;10.030;2023-06-24T03:42:07;11.18;;;8.38;;
20093;SDS011;10206;48.012;10.030;2023-06-24T03:44:33;9.05;;;7.88;;
20093;SDS011;10206;48.012;10.030;2023-06-24T03:46:59;9.13;;;7.95;;
20093;SDS011;10206;48.012;10.030;2023-06-24T03:49:25;8.02;;;7.13;;
20093;SDS011;10206;48.012;10.030;2023-06-24T03:51:51;7.38;;;6.65;;
20093;SDS011;10206;48.012;10.030;2023-06-24T03:54:17;9.70;;;6.97;;
20093;SDS011;10206;48.012;10.030;2023-06-24T03:56:43;7.95;;;7.15;;
20093;SDS011;10206;48.012;10.030;2023-06-24T03:59:09;8.43;;;7.15;;
20093;SDS011;10206;48.012;10.030;2023-06-24T04:01:36;6.93;;;5.70;;
20093;SDS011;10206;48.012;10.030;2023-06-24T04:04:02;8.40;;;6.47;;
20093;SDS011;10206;48.012;10.030;2023-06-24T04:06:29;7.80;;;6.50;;
20093;SDS011;10206;48.012;10.030;2023-06-24T04:08:55;7.32;;;6.18;;
20093;SDS011;10206;48.012;10.030;2023-06-24T04:11:21;7.32;;;6.18;;
20093;SDS011;10206;48.012;10.030;2023-06-24T04:13:47;8.77;;;6.27;;
20093;SDS011;10206;48.012;10.030;2023-06-24T04:16:14;8.07;;;5.83;;
20093;SDS011;10206;48.012;10.030;2023-06-24T04:18:40;8.05;;;5.43;;
20093;SDS011;10206;48.012;10.030;2023-06-24T04:21:06;6.63;;;5.85;;
20093;SDS011;10206;48.012;10.030;2023-06-24T04:23:33;7.72;;;6.25;;
20093;SDS011;10206;48.012;10.030;2023-06-24T04:25:59;6.88;;;6.03;;
20093;SDS011;10206;48.012;10.030;2023-06-24T04:28:25;5.68;;;5.13;;
20093;SDS011;10206;48.012;10.030;2023-06-24T04:30:53;5.20;;;4.70;;
20093;SDS011;10206;48.012;10.030;2023-06-24T04:33:21;7.65;;;5.40;;
20093;SDS011;10206;48.012;10.030;2023-06-24T04:35:48;7.07;;;5.47;;
20093;SDS011;10206;48.012;10.030;2023-06-24T04:38:16;6.60;;;5.30;;
20093;SDS011;10206;48.012;10.030;2023-06-24T04:40:43;5.80;;;5.13;;
20093;SDS011;10206;48.012;10.030;2023-06-24T04:43:10;6.10;;;5.18;;
20093;SDS011;10206;48.012;10.030;2023-06-24T04:45:36;7.07;;;5.03;;
20093;SDS011;10206;48.012;10.030;2023-06-24T04:48:02;6.10;;;5.07;;
20093;SDS011;10206;48.012;10.030;2023-06-24T04:50:28;5.97;;;4.85;;
20093;SDS011;10206;48.012;10.030;2023-06-24T04:52:54;6.85;;;4.82;;
20093;SDS011;10206;48.012;10.030;2023-06-24T04:55:23;5.70;;;4.85;;
20093;SDS011;10206;48.012;10.030;2023-06-24T04:57:49;5.45;;;4.60;;
20093;SDS011;10206;48.012;10.030;2023-06-24T05:00:16;6.63;;;5.53;;
20093;SDS011;10206;48.012;10.030;2023-06-24T05:02:42;7.18;;;5.32;;
20093;SDS011;10206;48.012;10.030;2023-06-24T05:05:08;5.90;;;5.30;;
20093;SDS011;10206;48.012;10.030;2023-06-24T05:07:34;6.28;;;5.68;;
20093;SDS011;10206;48.012;10.030;2023-06-24T05:10:00;6.00;;;5.40;;
20093;SDS011;10206;48.012;10.030;2023-06-24T05:12:26;8.38;;;5.95;;
20093;SDS011;10206;48.012;10.030;2023-06-24T05:14:52;5.40;;;4.90;;
20093;SDS011;10206;48.012;10.030;2023-06-24T05:17:19;9.05;;;5.70;;
20093;SDS011;10206;48.012;10.030;2023-06-24T05:19:45;6.18;;;5.28;;
20093;SDS011;10206;48.012;10.030;2023-06-24T05:22:11;6.00;;;5.25;;
20093;SDS011;10206;48.012;10.030;2023-06-24T05:24:37;6.28;;;5.15;;
20093;SDS011;10206;48.012;10.030;2023-06-24T05:27:06;5.80;;;5.20;;
20093;SDS011;10206;48.012;10.030;2023-06-24T05:29:32;5.68;;;5.07;;
20093;SDS011;10206;48.012;10.030;2023-06-24T05:31:59;6.28;;;5.43;;
20093;SDS011;10206;48.012;10.030;2023-06-24T05:34:26;5.90;;;5.32;;
20093;SDS011;10206;48.012;10.030;2023-06-24T05:36:53;5.90;;;5.30;;
20093;SDS011;10206;48.012;10.030;2023-06-24T05:39:19;7.00;;;5.60;;
20093;SDS011;10206;48.012;10.030;2023-06-24T05:41:46;6.18;;;5.43;;
20093;SDS011;10206;48.012;10.030;2023-06-24T05:44:13;6.07;;;5.47;;
20093;SDS011;10206;48.012;10.030;2023-06-24T05:46:40;6.20;;;5.15;;
20093;SDS011;10206;48.012;10.030;2023-06-24T05:49:06;5.85;;;5.05;;
20093;SDS011;10206;48.012;10.030;2023-06-24T05:51:32;6.97;;;5.55;;
20093;SDS011;10206;48.012;10.030;2023-06-24T05:53:58;5.80;;;5.30;;
20093;SDS011;10206;48.012;10.030;2023-06-24T05:56:24;7.32;;;6.10;;
20093;SDS011;10206;48.012;10.030;2023-06-24T05:58:51;6.25;;;5.65;;
20093;SDS011;10206;48.012;10.030;2023-06-24T06:01:17;6.45;;;5.72;;
20093;SDS011;10206;48.012;10.030;2023-06-24T06:03:43;8.32;;;7.50;;
20093;SDS011;10206;48.012;10.030;2023-06-24T06:06:09;8.13;;;7.30;;
20093;SDS011;10206;48.012;10.030;2023-06-24T06:08:35;6.60;;;6.00;;
20093;SDS011;10206;48.012;10.030;2023-06-24T06:11:01;6.72;;;6.10;;
20093;SDS011;10206;48.012;10.030;2023-06-24T06:13:28;6.25;;;5.60;;
20093;SDS011;10206;48.012;10.030;2023-06-24T06:15:55;5.78;;;5.18;;
20093;SDS011;10206;48.012;10.030;2023-06-24T06:18:21;6.25;;;5.65;;
20093;SDS011;10206;48.012;10.030;2023-06-24T06:20:48;7.38;;;5.50;;
20093;SDS011;10206;48.012;10.030;2023-06-24T06:23:14;8.30;;;5.60;;
20093;SDS011;10206;48.012;10.030;2023-06-24T06:25:41;6.22;;;5.40;;
20093;SDS011;10206;48.012;10.030;2023-06-24T06:28:07;6.68;;;5.72;;
20093;SDS011;10206;48.012;10.030;2023-06-24T06:30:33;5.90;;;5.35;;
20093;SDS011;10206;48.012;10.030;2023-06-24T06:32:59;6.45;;;5.65;;
20093;SDS011;10206;48.012;10.030;2023-06-24T06:35:25;6.63;;;6.03;;
20093;SDS011;10206;48.012;10.030;2023-06-24T06:37:51;6.00;;;5.40;;
20093;SDS011;10206;48.012;10.030;2023-06-24T06:40:19;5.60;;;5.10;;
20093;SDS011;10206;48.012;10.030;2023-06-24T06:42:46;5.85;;;5.10;;
20093;SDS011;10206;48.012;10.030;2023-06-24T06:45:12;6.13;;;5.53;;
20093;SDS011;10206;48.012;10.030;2023-06-24T06:47:38;7.00;;;5.10;;
20093;SDS011;10206;48.012;10.030;2023-06-24T06:50:05;5.80;;;5.20;;
20093;SDS011;10206;48.012;10.030;2023-06-24T06:52:32;5.97;;;5.38;;
20093;SDS011;10206;48.012;10.030;2023-06-24T06:54:59;5.93;;;5.32;;
20093;SDS011;10206;48.012;10.030;2023-06-24T06:57:25;6.50;;;5.10;;
20093;SDS011;10206;48.012;10.030;2023-06-24T06:59:51;6.13;;;5.35;;
20093;SDS011;10206;48.012;10.030;2023-06-24T07:02:18;6.03;;;5.10;;
20093;SDS011;10206;48.012;10.030;2023-06-24T07:04:44;5.85;;;5.00;;
20093;SDS011;10206;48.012;10.030;2023-06-24T07:07:12;5.55;;;4.40;;
20093;SDS011;10206;48.012;10.030;2023-06-24T07:09:39;5.68;;;5.07;;
20093;SDS011;10206;48.012;10.030;2023-06-24T07:12:08;5.65;;;5.10;;
20093;SDS011;10206;48.012;10.030;2023-06-24T07:14:34;5.78;;;5.18;;
20093;SDS011;10206;48.012;10.030;2023-06-24T07:17:01;6.03;;;4.72;;
20093;SDS011;10206;48.012;10.030;2023-06-24T07:19:27;5.53;;;4.95;;
20093;SDS011;10206;48.012;10.030;2023-06-24T07:21:53;6.38;;;5.05;;
20093;SDS011;10206;48.012;10.030;2023-06-24T07:24:19;5.72;;;5.18;;
20093;SDS011;10206;48.012;10.030;2023-06-24T07:26:45;7.38;;;5.68;;
20093;SDS011;10206;48.012;10.030;2023-06-24T07:29:11;6.38;;;4.70;;
20093;SDS011;10206;48.012;10.030;2023-06-24T07:31:37;5.82;;;5.30;;
20093;SDS011;10206;48.012;10.030;2023-06-24T07:34:03;6.55;;;5.30;;
20093;SDS011;10206;48.012;10.030;2023-06-24T07:36:30;6.13;;;5.50;;
20093;SDS011;10206;48.012;10.030;2023-06-24T07:38:56;6.15;;;5.30;;
20093;SDS011;10206;48.012;10.030;2023-06-24T07:41:22;7.18;;;6.45;;
20093;SDS011;10206;48.012;10.030;2023-06-24T07:43:48;6.85;;;6.15;;
20093;SDS011;10206;48.012;10.030;2023-06-24T07:46:14;7.10;;;5.57;;
20093;SDS011;10206;48.012;10.030;2023-06-24T07:48:41;6.03;;;5.43;;
20093;SDS011;10206;48.012;10.030;2023-06-24T07:51:07;9.00;;;6.75;;
20093;SDS011;10206;48.012;10.030;2023-06-24T07:53:34;7.07;;;6.38;;
20093;SDS011;10206;48.012;10.030;2023-06-24T07:56:00;6.20;;;5.60;;
20093;SDS011;10206;48.012;10.030;2023-06-24T07:58:26;6.97;;;6.28;;
20093;SDS011;10206;48.012;10.030;2023-06-24T08:00:52;9.00;;;7.72;;
20093;SDS011;10206;48.012;10.030;2023-06-24T08:03:32;7.53;;;6.75;;
20093;SDS011;10206;48.012;10.030;2023-06-24T08:05:59;6.80;;;6.20;;
20093;SDS011;10206;48.012;10.030;2023-06-24T08:08:25;6.93;;;6.22;;
20093;SDS011;10206;48.012;10.030;2023-06-24T08:10:51;8.80;;;7.03;;
20093;SDS011;10206;48.012;10.030;2023-06-24T08:13:17;8.57;;;7.63;;
20093;SDS011;10206;48.012;10.030;2023-06-24T08:15:43;8.02;;;7.20;;
20093;SDS011;10206;48.012;10.030;2023-06-24T08:18:09;7.60;;;6.82;;
20093;SDS011;10206;48.012;10.030;2023-06-24T08:20:36;6.78;;;6.15;;
20093;SDS011;10206;48.012;10.030;2023-06-24T08:23:02;7.40;;;6.70;;
20093;SDS011;10206;48.012;10.030;2023-06-24T08:25:28;7.45;;;6.30;;
20093;SDS011;10206;48.012;10.030;2023-06-24T08:27:55;7.45;;;6.75;;
20093;SDS011;10206;48.012;10.030;2023-06-24T08:30:21;7.65;;;6.90;;
20093;SDS011;10206;48.012;10.030;2023-06-24T08:32:47;9.63;;;7.10;;
20093;SDS011;10206;48.012;10.030;2023-06-24T08:35:13;7.10;;;6.40;;
20093;SDS011;10206;48.012;10.030;2023-06-24T08:37:40;6.60;;;5.90;;
20093;SDS011;10206;48.012;10.030;2023-06-24T08:40:06;6.78;;;6.07;;
20093;SDS011;10206;48.012;10.030;2023-06-24T08:42:33;7.88;;;6.60;;
20093;SDS011;10206;48.012;10.030;2023-06-24T08:44:59;7.50;;;6.68;;
20093;SDS011;10206;48.012;10.030;2023-06-24T08:47:25;8.45;;;6.80;;
20093;SDS011;10206;48.012;10.030;2023-06-24T08:49:55;7.05;;;6.35;;
20093;SDS011;10206;48.012;10.030;2023-06-24T08:52:29;7.13;;;6.28;;
20093;SDS011;10206;48.012;10.030;2023-06-24T08:54:59;7.50;;;6.70;;
20093;SDS011;10206;48.012;10.030;2023-06-24T08:57:27;6.75;;;6.15;;
20093;SDS011;10206;48.012;10.030;2023-06-24T08:59:54;7.75;;;6.60;;
20093;SDS011;10206;48.012;10.030;2023-06-24T09:02:20;7.68;;;6.47;;
20093;SDS011;10206;48.012;10.030;2023-06-24T09:04:46;7.57;;;6.80;;
20093;SDS011;10206;48.012;10.030;2023-06-24T09:07:12;7.03;;;6.40;;
20093;SDS011;10206;48.012;10.030;2023-06-24T09:09:42;8.43;;;6.40;;
20093;SDS011;10206;48.012;10.030;2023-06-24T09:12:13;8.23;;;6.65;;
20093;SDS011;10206;48.012;10.030;2023-06-24T09:14:40;6.28;;;5.55;;
20093;SDS011;10206;48.012;10.030;2023-06-24T09:17:06;7.43;;;6.25;;
20093;SDS011;10206;48.012;10.030;2023-06-24T09:19:34;6.15;;;5.55;;
20093;SDS011;10206;48.012;10.030;2023-06-24T09:22:05;7.90;;;5.50;;
20093;SDS011;10206;48.012;10.030;2023-06-24T09:24:35;6.70;;;5.75;;
20093;SDS011;10206;48.012;10.030;2023-06-24T09:27:02;6.97;;;6.20;;
20093;SDS011;10206;48.012;10.030;2023-06-24T09:29:31;7.40;;;5.05;;
20093;SDS011;10206;48.012;10.030;2023-06-24T09:31:58;6.40;;;5.40;;
20093;SDS011;10206;48.012;10.030;2023-06-24T09:34:25;6.38;;;5.72;;
20093;SDS011;10206;48.012;10.030;2023-06-24T09:36:53;6.90;;;5.60;;
20093;SDS011;10206;48.012;10.030;2023-06-24T09:39:21;8.40;;;5.35;;
20093;SDS011;10206;48.012;10.030;2023-06-24T09:41:58;7.60;;;5.32;;
20093;SDS011;10206;48.012;10.030;2023-06-24T09:44:28;5.60;;;5.10;;
20093;SDS011;10206;48.012;10.030;2023-06-24T09:46:55;9.57;;;5.78;;
20093;SDS011;10206;48.012;10.030;2023-06-24T09:49:22;5.82;;;5.30;;
20093;SDS011;10206;48.012;10.030;2023-06-24T09:51:54;7.10;;;5.22;;
20093;SDS011;10206;48.012;10.030;2023-06-24T09:54:25;6.57;;;5.90;;
20093;SDS011;10206;48.012;10.030;2023-06-24T09:56:53;6.10;;;5.47;;
20093;SDS011;10206;48.012;10.030;2023-06-24T09:59:23;6.25;;;5.32;;
20093;SDS011;10206;48.012;10.030;2023-06-24T10:01:51;6.38;;;5.78;;
20093;SDS011;10206;48.012;10.030;2023-06-24T10:04:19;5.78;;;5.03;;
20093;SDS011;10206;48.012;10.030;2023-06-24T10:06:49;6.47;;;5.82;;
20093;SDS011;10206;48.012;10.030;2023-06-24T10:09:15;5.63;;;4.95;;
20093;SDS011;10206;48.012;10.030;2023-06-24T10:11:42;6.78;;;5.68;;
20093;SDS011;10206;48.012;10.030;2023-06-24T10:14:12;5.70;;;5.13;;
20093;SDS011;10206;48.012;10.030;2023-06-24T10:16:42;6.85;;;5.32;;
20093;SDS011;10206;48.012;10.030;2023-06-24T10:19:09;5.78;;;5.18;;
20093;SDS011;10206;48.012;10.030;2023-06-24T10:21:51;5.82;;;5.20;;
20093;SDS011;10206;48.012;10.030;2023-06-24T10:24:31;5.38;;;4.90;;
20093;SDS011;10206;48.012;10.030;2023-06-24T10:27:06;7.30;;;4.80;;
20093;SDS011;10206;48.012;10.030;2023-06-24T10:29:37;6.22;;;5.63;;
20093;SDS011;10206;48.012;10.030;2023-06-24T10:32:04;6.45;;;5.30;;
20093;SDS011;10206;48.012;10.030;2023-06-24T10:37:03;5.22;;;4.72;;
20093;SDS011;10206;48.012;10.030;2023-06-24T10:42:32;8.90;;;6.20;;
20093;SDS011;10206;48.012;10.030;2023-06-24T10:47:48;6.82;;;5.80;;
20093;SDS011;10206;48.012;10.030;2023-06-24T10:50:20;6.38;;;5.78;;
20093;SDS011;10206;48.012;10.030;2023-06-24T10:52:49;5.57;;;4.95;;
20093;SDS011;10206;48.012;10.030;2023-06-24T10:55:22;6.80;;;5.80;;
20093;SDS011;10206;48.012;10.030;2023-06-24T10:57:50;6.78;;;5.28;;
20093;SDS011;10206;48.012;10.030;2023-06-24T11:00:16;6.25;;;5.50;;
20093;SDS011;10206;48.012;10.030;2023-06-24T11:02:43;7.13;;;5.50;;
20093;SDS011;10206;48.012;10.030;2023-06-24T11:05:12;6.05;;;5.45;;
20093;SDS011;10206;48.012;10.030;2023-06-24T11:07:38;5.15;;;4.65;;
20093;SDS011;10206;48.012;10.030;2023-06-24T11:12:41;5.72;;;4.82;;
20093;SDS011;10206;48.012;10.030;2023-06-24T11:15:08;5.60;;;4.90;;
20093;SDS011;10206;48.012;10.030;2023-06-24T11:17:36;5.68;;;4.80;;
20093;SDS011;10206;48.012;10.030;2023-06-24T11:20:06;5.50;;;5.00;;
20093;SDS011;10206;48.012;10.030;2023-06-24T11:22:34;5.45;;;4.95;;
20093;SDS011;10206;48.012;10.030;2023-06-24T11:25:00;6.45;;;5.30;;
20093;SDS011;10206;48.012;10.030;2023-06-24T11:27:27;5.97;;;5.38;;
20093;SDS011;10206;48.012;10.030;2023-06-24T11:29:54;5.75;;;5.25;;
20093;SDS011;10206;48.012;10.030;2023-06-24T11:32:25;6.97;;;5.20;;
20093;SDS011;10206;48.012;10.030;2023-06-24T11:35:10;5.10;;;4.70;;
20093;SDS011;10206;48.012;10.030;2023-06-24T11:37:40;5.10;;;4.60;;
20093;SDS011;10206;48.012;10.030;2023-06-24T11:40:08;6.55;;;5.18;;
20093;SDS011;10206;48.012;10.030;2023-06-24T11:42:36;5.15;;;4.75;;
20093;SDS011;10206;48.012;10.030;2023-06-24T11:45:03;6.20;;;4.55;;
20093;SDS011;10206;48.012;10.030;2023-06-24T11:47:36;5.20;;;4.70;;
20093;SDS011;10206;48.012;10.030;2023-06-24T11:50:04;5.38;;;4.85;;
20093;SDS011;10206;48.012;10.030;2023-06-24T11:52:41;5.38;;;4.85;;
20093;SDS011;10206;48.012;10.030;2023-06-24T11:55:16;4.90;;;4.50;;
20093;SDS011;10206;48.012;10.030;2023-06-24T11:57:58;5.28;;;4.80;;
20093;SDS011;10206;48.012;10.030;2023-06-24T12:00:31;5.95;;;5.18;;
20093;SDS011;10206;48.012;10.030;2023-06-24T12:02:58;6.57;;;4.45;;
20093;SDS011;10206;48.012;10.030;2023-06-24T12:05:30;12.15;;;5.03;;
20093;SDS011;10206;48.012;10.030;2023-06-24T12:07:58;6.35;;;4.65;;
20093;SDS011;10206;48.012;10.030;2023-06-24T12:10:35;6.03;;;5.43;;
20093;SDS011;10206;48.012;10.030;2023-06-24T12:13:03;6.22;;;5.20;;
20093;SDS011;10206;48.012;10.030;2023-06-24T12:15:31;5.63;;;4.30;;
20093;SDS011;10206;48.012;10.030;2023-06-24T12:17:57;5.55;;;5.05;;
20093;SDS011;10206;48.012;10.030;2023-06-24T12:20:24;5.93;;;4.97;;
20093;SDS011;10206;48.012;10.030;2023-06-24T12:22:51;6.18;;;5.15;;
20093;SDS011;10206;48.012;10.030;2023-06-24T12:25:17;6.32;;;5.38;;
20093;SDS011;10206;48.012;10.030;2023-06-24T12:27:44;5.35;;;4.78;;
20093;SDS011;10206;48.012;10.030;2023-06-24T12:30:10;5.18;;;4.68;;
20093;SDS011;10206;48.012;10.030;2023-06-24T12:32:37;5.35;;;4.70;;
20093;SDS011;10206;48.012;10.030;2023-06-24T12:35:05;5.47;;;4.35;;
20093;SDS011;10206;48.012;10.030;2023-06-24T12:37:33;6.07;;;4.47;;
20093;SDS011;10206;48.012;10.030;2023-06-24T12:40:00;9.38;;;5.10;;
20093;SDS011;10206;48.012;10.030;2023-06-24T12:42:27;6.25;;;5.65;;
20093;SDS011;10206;48.012;10.030;2023-06-24T12:44:53;7.00;;;5.38;;
20093;SDS011;10206;48.012;10.030;2023-06-24T12:47:20;6.78;;;5.53;;
20093;SDS011;10206;48.012;10.030;2023-06-24T12:49:46;5.57;;;5.07;;
20093;SDS011;10206;48.012;10.030;2023-06-24T12:52:14;6.88;;;5.15;;
20093;SDS011;10206;48.012;10.030;2023-06-24T12:54:40;5.53;;;5.03;;
20093;SDS011;10206;48.012;10.030;2023-06-24T12:57:06;5.15;;;4.65;;
20093;SDS011;10206;48.012;10.030;2023-06-24T12:59:33;5.88;;;5.15;;
20093;SDS011;10206;48.012;10.030;2023-06-24T13:01:59;6.68;;;5.13;;
20093;SDS011;10206;48.012;10.030;2023-06-24T13:04:25;6.40;;;4.93;;
20093;SDS011;10206;48.012;10.030;2023-06-24T13:06:52;5.18;;;4.68;;
20093;SDS011;10206;48.012;10.030;2023-06-24T13:09:18;6.13;;;5.63;;
20093;SDS011;10206;48.012;10.030;2023-06-24T13:11:44;6.88;;;4.78;;
20093;SDS011;10206;48.012;10.030;2023-06-24T13:14:11;5.50;;;5.00;;
20093;SDS011;10206;48.012;10.030;2023-06-24T13:16:38;5.97;;;5.38;;
20093;SDS011;10206;48.012;10.030;2023-06-24T13:19:04;5.38;;;4.88;;
20093;SDS011;10206;48.012;10.030;2023-06-24T13:21:31;6.07;;;4.75;;
20093;SDS011;10206;48.012;10.030;2023-06-24T13:23:57;6.57;;;4.93;;
20093;SDS011;10206;48.012;10.030;2023-06-24T13:26:23;6.80;;;5.63;;
20093;SDS011;10206;48.012;10.030;2023-06-24T13:28:49;5.60;;;5.07;;
20093;SDS011;10206;48.012;10.030;2023-06-24T13:31:15;5.38;;;4.88;;
20093;SDS011;10206;48.012;10.030;2023-06-24T13:33:41;4.93;;;4.40;;
20093;SDS011;10206;48.012;10.030;2023-06-24T13:36:08;5.93;;;4.82;;
20093;SDS011;10206;48.012;10.030;2023-06-24T13:38:52;5.32;;;4.82;;
20093;SDS011;10206;48.012;10.030;2023-06-24T13:41:18;10.23;;;5.40;;
20093;SDS011;10206;48.012;10.030;2023-06-24T13:43:45;5.80;;;5.20;;
20093;SDS011;10206;48.012;10.030;2023-06-24T13:46:11;6.35;;;5.15;;
20093;SDS011;10206;48.012;10.030;2023-06-24T13:48:37;5.70;;;5.20;;
20093;SDS011;10206;48.012;10.030;2023-06-24T13:51:03;5.57;;;5.07;;
20093;SDS011;10206;48.012;10.030;2023-06-24T13:53:31;5.75;;;5.00;;
20093;SDS011;10206;48.012;10.030;2023-06-24T13:55:57;7.88;;;5.30;;
20093;SDS011;10206;48.012;10.030;2023-06-24T13:58:23;5.47;;;4.97;;
20093;SDS011;10206;48.012;10.030;2023-06-24T14:00:49;5.93;;;5.10;;
20093;SDS011;10206;48.012;10.030;2023-06-24T14:03:16;5.63;;;5.03;;
20093;SDS011;10206;48.012;10.030;2023-06-24T14:05:42;5.50;;;5.00;;
20093;SDS011;10206;48.012;10.030;2023-06-24T14:08:08;6.30;;;5.05;;
20093;SDS011;10206;48.012;10.030;2023-06-24T14:10:34;5.57;;;4.90;;
20093;SDS011;10206;48.012;10.030;2023-06-24T14:13:00;5.82;;;5.10;;
20093;SDS011;10206;48.012;10.030;2023-06-24T14:15:26;5.95;;;5.25;;
20093;SDS011;10206;48.012;10.030;2023-06-24T14:17:52;5.53;;;5.00;;
20093;SDS011;10206;48.012;10.030;2023-06-24T14:20:18;5.72;;;5.18;;
20093;SDS011;10206;48.012;10.030;2023-06-24T14:22:44;5.38;;;4.88;;
20093;SDS011;10206;48.012;10.030;2023-06-24T14:25:11;5.93;;;5.32;;
20093;SDS011;10206;48.012;10.030;2023-06-24T14:27:37;6.25;;;5.50;;
20093;SDS011;10206;48.012;10.030;2023-06-24T14:30:04;5.63;;;5.07;;
20093;SDS011;10206;48.012;10.030;2023-06-24T14:32:30;6.32;;;5.18;;
20093;SDS011;10206;48.012;10.030;2023-06-24T14:34:57;6.18;;;5.22;;
20093;SDS011;10206;48.012;10.030;2023-06-24T14:37:23;5.18;;;4.68;;
20093;SDS011;10206;48.012;10.030;2023-06-24T14:39:49;5.60;;;5.03;;
20093;SDS011;10206;48.012;10.030;2023-06-24T14:42:15;5.88;;;5.25;;
20093;SDS011;10206;48.012;10.030;2023-06-24T14:44:41;5.90;;;5.30;;
20093;SDS011;10206;48.012;10.030;2023-06-24T14:47:07;5.30;;;4.78;;
20093;SDS011;10206;48.012;10.030;2023-06-24T14:49:34;5.80;;;4.93;;
20093;SDS011;10206;48.012;10.030;2023-06-24T14:52:00;5.72;;;5.22;;